Date,TemperatureHighF,TemperatureAvgF,TemperatureLowF,DewpointHighF,DewpointAvgF,DewpointLowF,HumidityHigh,HumidityAvg,HumidityLow,PressureMaxIn,PressureMinIn,WindSpeedMaxMPH,WindSpeedAvgMPH,GustSpeedMaxMPH,PrecipitationSumIn
2013-7-1,68,62,57,63,60,57,99,94,81,0.00,40.00,6,3,11,0.00
2013-7-2,68,61,58,61,60,58,99,94,79,0.00,40.00,6,3,10,0.00
2013-7-3,70,63,58,62,60,58,99,89,73,0.00,40.00,5,2,9,0.00
2013-7-4,74,64,56,60,58,54,99,82,58,0.00,40.00,5,2,10,0.00
2013-7-5,79,69,53,56,53,44,99,61,29,0.00,40.00,15,6,23,0.00
2013-7-6,64,56,51,55,53,51,99,89,67,0.00,40.00,8,2,13,0.00
2013-7-7,60,55,51,56,53,51,99,94,81,0.00,40.00,5,2,9,0.00
2013-7-8,59,53,50,55,52,50,99,96,82,0.00,40.00,5,2,8,0.00
2013-7-9,57,53,51,53,52,51,99,97,86,0.00,40.00,5,1,7,0.00
2013-7-10,61,53,51,57,50,-100,99,94,84,0.00,40.00,5,2,8,0.03
2013-7-11,60,55,52,55,53,52,99,94,81,0.00,40.00,5,3,9,0.03
2013-7-12,67,56,49,54,52,49,99,88,61,0.00,40.00,5,2,9,0.01
2013-7-13,65,57,49,55,52,49,99,86,65,0.00,40.00,5,2,12,0.00
2013-7-14,63,57,51,55,53,51,99,88,69,0.00,40.00,5,2,9,0.00
2013-7-15,56,54,51,56,53,51,99,98,95,0.00,40.00,5,2,8,0.00
2013-7-16,57,54,52,55,53,52,99,95,84,0.00,40.00,4,2,7,0.00
2013-7-17,64,58,54,57,54,53,95,87,74,0.00,40.00,9,4,15,0.00
2013-7-18,59,55,53,56,54,53,99,96,88,0.00,40.00,5,3,9,0.00
2013-7-19,60,56,53,56,54,52,99,95,84,0.00,40.00,5,2,8,0.00
2013-7-20,59,55,52,57,53,-100,99,95,84,0.00,40.00,5,2,8,0.00
2013-7-21,57,54,51,56,53,51,99,98,92,0.00,40.00,5,2,8,0.00
2013-7-22,57,53,52,55,53,52,99,98,94,0.00,40.00,5,2,8,0.00
2013-7-23,58,52,49,56,52,49,99,99,95,0.00,40.00,5,2,9,0.00
2013-7-26,62,60,56,57,56,55,94,86,76,0.00,40.00,5,3,10,0.00
2013-7-27,74,60,54,60,56,53,100,88,60,0.00,40.00,6,2,12,0.00
2013-7-28,72,59,50,57,54,50,100,86,57,0.00,40.00,7,3,12,0.00
2013-7-29,58,55,52,55,54,51,100,95,85,0.00,40.00,5,2,9,0.00
2013-7-30,60,55,52,55,54,52,100,96,84,0.00,40.00,4,2,7,0.00
2013-7-31,58,56,54,57,55,54,100,98,91,0.00,40.00,6,2,10,0.00